Time;durP1;ratioP1;P1;durP2;ratioP2;P2;SDS_P1;SDS_P2;PMS_P1;PMS_P2;Temp;Humidity;BMP_temperature;BMP_pressure;BME280_temperature;BME280_humidity;BME280_pressure;Samples;Min_cycle;Max_cycle;Signal;HPM_P1;HPM_P2
2022/11/26 00:02:21;;;;;;;19.75;7.72;;;;;;;8.32;100.00;102466.63;4954999;28;20043;-50
2022/11/26 00:04:51;;;;;;;19.90;7.85;;;;;;;8.33;100.00;102470.19;4955052;28;20383;-54
2022/11/26 00:07:21;;;;;;;17.52;7.70;;;;;;;8.31;100.00;102467.66;4950006;28;20082;-54
2022/11/26 00:09:49;;;;;;;18.85;8.05;;;;;;;8.31;100.00;102469.56;4956309;28;20047;-50
2022/11/26 00:12:27;;;;;;;20.95;7.72;;;;;;;8.31;100.00;102477.69;4954358;28;20031;-50
2022/11/26 00:14:55;;;;;;;19.42;7.63;;;;;;;8.29;100.00;102483.34;4954798;29;20043;-51
2022/11/26 00:17:22;;;;;;;17.67;7.88;;;;;;;8.30;100.00;102485.03;4946714;28;20035;-50
2022/11/26 00:19:50;;;;;;;18.83;7.68;;;;;;;8.29;100.00;102486.03;4954896;29;20057;-51
2022/11/26 00:22:28;;;;;;;17.90;7.20;;;;;;;8.30;100.00;102487.75;4953514;29;20059;-51
2022/11/26 00:24:56;;;;;;;19.52;7.85;;;;;;;8.28;100.00;102487.09;4953498;29;20070;-51
2022/11/26 00:27:25;;;;;;;20.55;7.93;;;;;;;8.27;100.00;102484.59;4953311;28;20113;-50
2022/11/26 00:29:53;;;;;;;20.70;7.80;;;;;;;8.26;100.00;102491.09;4991201;28;20042;-49
2022/11/26 00:32:23;;;;;;;21.60;7.85;;;;;;;8.27;100.00;102495.44;5013021;28;20064;-50
2022/11/26 00:34:51;;;;;;;19.08;7.40;;;;;;;8.27;100.00;102488.16;5010513;28;20046;-51
2022/11/26 00:37:23;;;;;;;16.02;6.93;;;;;;;8.28;100.00;102489.00;5001983;28;20047;-54
2022/11/26 00:39:51;;;;;;;17.75;6.95;;;;;;;8.29;100.00;102496.09;4976429;28;20440;-51
2022/11/26 00:42:19;;;;;;;19.52;7.50;;;;;;;8.26;100.00;102496.50;5010082;28;20042;-53
2022/11/26 00:44:46;;;;;;;14.80;7.03;;;;;;;8.24;100.00;102491.28;5010381;28;20108;-50
2022/11/26 00:47:14;;;;;;;17.73;6.60;;;;;;;8.24;100.00;102495.88;5008667;28;20050;-51
2022/11/26 00:49:41;;;;;;;17.58;7.38;;;;;;;8.22;100.00;102492.53;5006981;28;20100;-51
2022/11/26 00:52:32;;;;;;;16.38;6.82;;;;;;;8.23;100.00;102488.78;5013087;28;20038;-53
2022/11/26 00:55:05;;;;;;;19.85;7.78;;;;;;;8.23;100.00;102496.94;5010578;28;20547;-52
2022/11/26 00:57:32;;;;;;;17.25;7.25;;;;;;;8.21;100.00;102493.59;4967993;28;20044;-52
2022/11/26 01:00:00;;;;;;;21.13;7.65;;;;;;;8.19;100.00;102496.50;4991356;28;20045;-51
2022/11/26 01:02:28;;;;;;;17.73;7.32;;;;;;;8.18;100.00;102494.00;5008621;28;20054;-52
2022/11/26 01:04:55;;;;;;;17.33;6.78;;;;;;;8.16;100.00;102496.94;4997238;28;20042;-52
2022/11/26 01:07:23;;;;;;;20.10;7.05;;;;;;;8.14;100.00;102503.63;4973920;28;20449;-53
2022/11/26 01:09:51;;;;;;;17.80;7.05;;;;;;;8.14;100.00;102498.19;4992511;28;20073;-52
2022/11/26 01:12:18;;;;;;;18.88;7.30;;;;;;;8.13;100.00;102510.09;5010565;28;20046;-52
2022/11/26 01:14:46;;;;;;;18.63;7.32;;;;;;;8.14;100.00;102509.06;5002566;28;20093;-51
2022/11/26 01:17:13;;;;;;;16.75;6.85;;;;;;;8.13;100.00;102513.66;5001414;28;20046;-52
2022/11/26 01:19:41;;;;;;;15.95;7.07;;;;;;;8.11;100.00;102510.31;4995604;28;20398;-50
2022/11/26 01:22:20;;;;;;;20.00;7.78;;;;;;;8.07;100.00;102515.31;5006647;28;20529;-53
2022/11/26 01:24:48;;;;;;;20.02;7.45;;;;;;;8.05;100.00;102517.41;4990999;28;20046;-51
2022/11/26 01:27:19;;;;;;;17.70;6.60;;;;;;;8.05;100.00;102513.88;5007376;28;20043;-50
2022/11/26 01:29:47;;;;;;;19.95;7.70;;;;;;;8.03;100.00;102508.66;5012162;28;20060;-53
2022/11/26 01:32:14;;;;;;;18.65;7.68;;;;;;;8.03;100.00;102499.66;5010602;28;20466;-50
2022/11/26 01:34:42;;;;;;;14.68;6.85;;;;;;;8.01;100.00;102501.75;5011042;28;20037;-52
2022/11/26 01:37:12;;;;;;;15.25;6.95;;;;;;;8.00;100.00;102506.34;5011821;28;20050;-50
2022/11/26 01:39:39;;;;;;;19.20;7.18;;;;;;;7.98;100.00;102508.44;5003649;28;20034;-53
2022/11/26 01:42:27;;;;;;;18.58;7.13;;;;;;;7.98;100.00;102500.28;5008060;28;20137;-50
2022/11/26 01:44:55;;;;;;;15.57;6.85;;;;;;;7.97;100.00;102506.78;4995156;28;20057;-50
2022/11/26 01:47:28;;;;;;;20.17;7.15;;;;;;;7.97;100.00;102500.50;5010850;28;20065;-48
2022/11/26 01:50:27;;;;;;;16.70;6.68;;;;;;;7.96;100.00;102507.81;5013416;28;20038;-51
2022/11/26 01:53:02;;;;;;;18.30;6.93;;;;;;;7.96;100.00;102512.41;5009842;28;20053;-50
2022/11/26 01:55:44;;;;;;;15.23;6.60;;;;;;;7.96;100.00;102512.41;5007154;28;20560;-50
2022/11/26 01:58:14;;;;;;;18.42;7.55;;;;;;;7.94;100.00;102512.63;4997313;28;20050;-50
2022/11/26 02:00:42;;;;;;;18.63;7.40;;;;;;;7.92;100.00;102516.59;5015558;28;20092;-53
2022/11/26 02:03:10;;;;;;;14.90;6.57;;;;;;;7.89;100.00;102515.13;5004596;28;20421;-53
2022/11/26 02:05:46;;;;;;;15.60;6.60;;;;;;;7.86;100.00;102518.25;4992804;28;20069;-50
2022/11/26 02:08:14;;;;;;;15.43;6.43;;;;;;;7.86;100.00;102523.66;4986751;28;20046;-51
2022/11/26 02:10:42;;;;;;;15.88;6.97;;;;;;;7.85;100.00;102514.69;4988867;28;20520;-50
2022/11/26 02:13:10;;;;;;;15.77;6.63;;;;;;;7.84;100.00;102523.03;5001047;28;20097;-50
2022/11/26 02:16:12;;;;;;;18.95;6.35;;;;;;;7.83;100.00;102519.50;4966672;28;20104;-51
2022/11/26 02:18:43;;;;;;;17.55;7.03;;;;;;;7.81;100.00;102520.75;4995127;28;20045;-51
2022/11/26 02:21:22;;;;;;;16.75;6.10;;;;;;;7.81;100.00;102528.88;4948249;28;20038;-50
2022/11/26 02:24:28;;;;;;;18.65;7.25;;;;;;;7.80;100.00;102533.47;4971508;28;20043;-51
2022/11/26 02:26:55;;;;;;;18.35;7.75;;;;;;;7.77;100.00;102536.63;4980865;28;20050;-47
2022/11/26 02:29:45;;;;;;;14.18;6.50;;;;;;;7.75;100.00;102532.44;4977946;28;20457;-50
2022/11/26 02:32:29;;;;;;;18.83;7.55;;;;;;;7.74;100.00;102549.75;4983368;28;20039;-50
2022/11/26 02:35:01;;;;;;;17.98;7.40;;;;;;;7.71;100.00;102555.59;4971709;28;20090;-51
2022/11/26 02:37:52;;;;;;;18.38;6.72;;;;;;;7.67;100.00;102555.16;4977621;28;20425;-50
2022/11/26 02:40:20;;;;;;;19.52;7.47;;;;;;;7.64;100.00;102553.69;4976149;28;20047;-52
2022/11/26 02:42:47;;;;;;;19.92;7.10;;;;;;;7.65;100.00;102549.97;4991061;28;20054;-55
2022/11/26 02:45:21;;;;;;;16.88;6.72;;;;;;;7.65;100.00;102549.97;4985164;28;20047;-54
2022/11/26 02:47:52;;;;;;;14.85;6.60;;;;;;;7.63;100.00;102540.34;4975961;28;20045;-50
2022/11/26 02:50:26;;;;;;;17.00;7.43;;;;;;;7.61;100.00;102543.25;4980014;28;20500;-52
2022/11/26 02:52:56;;;;;;;16.17;6.68;;;;;;;7.59;100.00;102539.91;4985449;28;20042;-52
2022/11/26 02:55:27;;;;;;;15.85;6.80;;;;;;;7.57;100.00;102542.00;4971236;28;20049;-53
2022/11/26 02:57:56;;;;;;;17.80;7.05;;;;;;;7.58;100.00;102551.00;4965446;28;20039;-51
2022/11/26 03:00:23;;;;;;;15.07;6.85;;;;;;;7.57;100.00;102552.84;4964528;28;20497;-51
2022/11/26 03:03:21;;;;;;;18.27;6.72;;;;;;;7.59;100.00;102560.78;4951153;28;20049;-54
2022/11/26 03:05:53;;;;;;;15.73;7.03;;;;;;;7.57;100.00;102562.88;4999279;28;20043;-52
2022/11/26 03:08:21;;;;;;;19.38;6.72;;;;;;;7.57;100.00;102565.56;4996289;28;20038;-50
2022/11/26 03:10:49;;;;;;;15.73;6.28;;;;;;;7.57;100.00;102569.13;4990643;28;20053;-52
2022/11/26 03:13:17;;;;;;;21.45;7.35;;;;;;;7.58;100.00;102568.09;5014541;28;20368;-51
2022/11/26 03:15:44;;;;;;;16.48;6.82;;;;;;;7.57;100.00;102568.28;4988053;28;20073;-51
2022/11/26 03:18:12;;;;;;;16.30;6.63;;;;;;;7.57;100.00;102563.69;4971595;28;20050;-51
2022/11/26 03:20:40;;;;;;;19.42;7.72;;;;;;;7.57;100.00;102566.41;4992352;28;20030;-51
2022/11/26 03:23:07;;;;;;;19.08;7.13;;;;;;;7.57;100.00;102569.13;5012152;28;20042;-51
2022/11/26 03:25:35;;;;;;;17.48;6.75;;;;;;;7.56;100.00;102567.47;4993026;28;20042;-53
2022/11/26 03:28:03;;;;;;;17.00;6.28;;;;;;;7.54;100.00;102579.56;5007496;28;20447;-50
2022/11/26 03:30:31;;;;;;;18.25;7.28;;;;;;;7.51;100.00;102578.09;4991170;28;20065;-50
2022/11/26 03:32:58;;;;;;;19.52;7.88;;;;;;;7.46;100.00;102577.88;4975094;28;20068;-49
2022/11/26 03:35:26;;;;;;;17.40;7.28;;;;;;;7.42;100.00;102582.03;4970795;28;20046;-50
2022/11/26 03:37:53;;;;;;;22.00;8.02;;;;;;;7.38;100.00;102591.59;4955100;28;20039;-54
2022/11/26 03:40:21;;;;;;;18.10;7.78;;;;;;;7.38;100.00;102591.59;4986819;28;20066;-50
2022/11/26 03:42:49;;;;;;;18.95;7.22;;;;;;;7.37;100.00;102585.34;4986231;28;20069;-50
2022/11/26 03:45:16;;;;;;;14.95;6.45;;;;;;;7.38;100.00;102581.56;4974594;28;20039;-51
2022/11/26 03:47:44;;;;;;;18.33;6.90;;;;;;;7.38;100.00;102584.28;4980396;28;20076;-50
2022/11/26 03:50:12;;;;;;;16.25;7.28;;;;;;;7.39;100.00;102585.16;4982136;28;20046;-50
2022/11/26 03:52:39;;;;;;;15.60;6.30;;;;;;;7.40;100.00;102584.09;4972148;28;20505;-51
2022/11/26 03:55:08;;;;;;;17.13;6.15;;;;;;;7.41;100.00;102588.50;4974956;28;20097;-53
2022/11/26 03:57:36;;;;;;;18.00;7.22;;;;;;;7.42;100.00;102592.88;4977367;28;20528;-50
2022/11/26 04:00:07;;;;;;;19.00;7.20;;;;;;;7.42;100.00;102593.69;4981083;28;20045;-52
2022/11/26 04:02:35;;;;;;;16.25;7.20;;;;;;;7.44;100.00;102596.22;4988084;28;20137;-52
2022/11/26 04:05:03;;;;;;;16.30;7.10;;;;;;;7.43;100.00;102599.94;4975354;28;20039;-53
2022/11/26 04:07:31;;;;;;;15.55;6.68;;;;;;;7.41;100.00;102597.47;4974622;28;20050;-52
2022/11/26 04:09:59;;;;;;;17.90;6.15;;;;;;;7.42;100.00;102598.28;4988433;28;20043;-51
2022/11/26 04:12:26;;;;;;;15.82;6.85;;;;;;;7.40;100.00;102594.94;4964474;28;20049;-49
2022/11/26 04:14:54;;;;;;;14.75;6.38;;;;;;;7.38;100.00;102595.13;4978221;28;20430;-51
2022/11/26 04:17:21;;;;;;;19.77;7.35;;;;;;;7.39;100.00;102596.00;4974436;28;20494;-50
2022/11/26 04:19:49;;;;;;;20.13;7.38;;;;;;;7.39;100.00;102606.84;4986275;28;20046;-50
2022/11/26 04:22:17;;;;;;;16.48;6.05;;;;;;;7.37;100.00;102612.47;4962276;28;20050;-50
2022/11/26 04:24:44;;;;;;;13.95;6.75;;;;;;;7.36;100.00;102615.34;4979534;28;20047;-49
2022/11/26 04:27:12;;;;;;;14.93;6.90;;;;;;;7.35;100.00;102619.13;4973992;28;20082;-50
2022/11/26 04:29:39;;;;;;;16.55;7.15;;;;;;;7.33;100.00;102623.91;4986948;28;20054;-50
2022/11/26 04:32:07;;;;;;;17.30;7.25;;;;;;;7.31;100.00;102623.25;4980317;28;20489;-48
2022/11/26 04:34:34;;;;;;;18.20;6.95;;;;;;;7.30;100.00;102627.84;4983831;28;20050;-52
2022/11/26 04:37:02;;;;;;;15.55;6.80;;;;;;;7.29;100.00;102626.19;4980698;28;20050;-50
2022/11/26 04:39:30;;;;;;;18.55;6.70;;;;;;;7.31;100.00;102634.97;4983862;28;20034;-51
2022/11/26 04:41:58;;;;;;;17.58;6.60;;;;;;;7.29;100.00;102623.50;4976461;28;20042;-51
2022/11/26 04:44:25;;;;;;;16.73;6.50;;;;;;;7.29;100.00;102636.19;4983605;28;20042;-49
2022/11/26 04:46:53;;;;;;;14.50;6.55;;;;;;;7.28;100.00;102629.09;4962865;28;20038;-50
2022/11/26 04:49:21;;;;;;;21.27;7.00;;;;;;;7.27;100.00;102628.28;4970089;28;20049;-55
2022/11/26 04:51:48;;;;;;;16.90;6.63;;;;;;;7.26;100.00;102626.59;4982255;28;20070;-49
2022/11/26 04:54:16;;;;;;;18.75;7.05;;;;;;;7.24;100.00;102626.81;4978407;28;20529;-50
2022/11/26 04:56:44;;;;;;;17.92;7.40;;;;;;;7.25;100.00;102625.75;4974719;28;20047;-54
2022/11/26 04:59:11;;;;;;;18.50;7.72;;;;;;;7.25;100.00;102619.50;4970429;28;20038;-49
2022/11/26 05:01:39;;;;;;;18.92;7.15;;;;;;;7.24;100.00;102624.09;4983277;28;20054;-51
2022/11/26 05:04:06;;;;;;;17.88;6.85;;;;;;;7.22;100.00;102631.59;4977035;28;20094;-52
2022/11/26 05:06:34;;;;;;;19.88;6.95;;;;;;;7.20;100.00;102639.06;4977499;28;20046;-53
2022/11/26 05:09:02;;;;;;;18.23;7.82;;;;;;;7.20;100.00;102633.66;4982384;28;20102;-55
2022/11/26 05:11:29;;;;;;;18.38;7.30;;;;;;;7.20;100.00;102639.06;4979332;28;20039;-55
2022/11/26 05:13:57;;;;;;;18.20;7.32;;;;;;;7.18;100.00;102640.31;4976349;28;20067;-51
2022/11/26 05:16:25;;;;;;;19.50;7.05;;;;;;;7.14;100.00;102641.75;5000283;28;20450;-56
2022/11/26 05:18:52;;;;;;;15.85;6.95;;;;;;;7.14;100.00;102631.72;4988218;28;20042;-51
2022/11/26 05:21:20;;;;;;;20.60;7.22;;;;;;;7.15;100.00;102638.00;5014079;28;20372;-52
2022/11/26 05:23:47;;;;;;;19.30;6.70;;;;;;;7.16;100.00;102637.78;5007227;28;20046;-53
2022/11/26 05:26:15;;;;;;;19.60;7.40;;;;;;;7.16;100.00;102648.63;5011014;28;20046;-52
2022/11/26 05:28:43;;;;;;;16.95;7.78;;;;;;;7.11;100.00;102648.41;5010854;28;20382;-53
2022/11/26 05:31:10;;;;;;;14.27;6.28;;;;;;;7.08;100.00;102651.53;4977333;28;20047;-56
2022/11/26 05:33:38;;;;;;;17.63;7.70;;;;;;;7.07;100.00;102655.28;4977411;28;20059;-54
2022/11/26 05:36:06;;;;;;;17.83;6.60;;;;;;;7.04;100.00;102650.25;4976708;28;20065;-52
2022/11/26 05:38:34;;;;;;;14.15;6.63;;;;;;;7.00;100.00;102657.13;4992737;28;20049;-48
2022/11/26 05:41:02;;;;;;;15.27;6.35;;;;;;;6.99;100.00;102658.13;4989576;28;21796;-51
2022/11/26 05:43:30;;;;;;;16.90;6.57;;;;;;;6.93;100.00;102653.53;4979030;28;20085;-55
2022/11/26 05:46:05;;;;;;;17.05;6.90;;;;;;;6.88;100.00;102653.25;5009678;28;20047;-55
2022/11/26 05:48:33;;;;;;;15.40;6.78;;;;;;;6.83;100.00;102649.28;4978932;28;20142;-52
2022/11/26 05:51:02;;;;;;;12.57;5.95;;;;;;;6.81;100.00;102651.34;5001127;28;20101;-53
2022/11/26 05:53:29;;;;;;;17.08;7.00;;;;;;;6.79;100.00;102664.25;5010791;28;20042;-52
2022/11/26 05:55:57;;;;;;;17.73;6.95;;;;;;;6.77;100.00;102660.06;4989498;28;20405;-52
2022/11/26 05:58:25;;;;;;;16.40;6.40;;;;;;;6.78;100.00;102661.72;4975009;28;20039;-52
2022/11/26 06:00:52;;;;;;;19.50;7.32;;;;;;;6.79;100.00;102669.66;4995689;28;20035;-52
2022/11/26 06:03:20;;;;;;;17.40;6.63;;;;;;;6.81;100.00;102670.31;4996180;28;20046;-54
2022/11/26 06:05:48;;;;;;;18.85;6.60;;;;;;;6.85;100.00;102676.16;4993320;28;20035;-52
2022/11/26 06:08:16;;;;;;;17.30;6.22;;;;;;;6.88;100.00;102688.47;4975036;28;20053;-52
2022/11/26 06:10:44;;;;;;;14.73;6.93;;;;;;;6.87;100.00;102686.81;4977584;28;20504;-52
2022/11/26 06:13:12;;;;;;;17.45;6.90;;;;;;;6.85;100.00;102689.72;4995721;28;20150;-52
2022/11/26 06:15:40;;;;;;;18.45;6.63;;;;;;;6.88;100.00;102683.06;4973142;28;20042;-54
2022/11/26 06:18:07;;;;;;;19.65;7.05;;;;;;;6.87;100.00;102684.09;4974037;28;20041;-52
2022/11/26 06:20:36;;;;;;;19.25;7.40;;;;;;;6.87;100.00;102686.81;4972844;28;20066;-55
2022/11/26 06:23:04;;;;;;;18.13;7.45;;;;;;;6.89;100.00;102690.16;4990682;28;20063;-53
2022/11/26 06:25:31;;;;;;;24.75;7.78;;;;;;;6.85;100.00;102688.88;4994755;28;20046;-52
2022/11/26 06:27:59;;;;;;;22.02;8.05;;;;;;;6.81;100.00;102693.88;4991892;28;20038;-53
2022/11/26 06:30:27;;;;;;;24.15;7.53;;;;;;;6.82;100.00;102695.53;4980963;28;20070;-51
2022/11/26 06:32:54;;;;;;;22.75;8.15;;;;;;;6.80;100.00;102692.19;4975972;28;20043;-51
2022/11/26 06:35:22;;;;;;;23.17;8.50;;;;;;;6.76;100.00;102699.88;4989941;28;20047;-52
2022/11/26 06:37:50;;;;;;;21.00;7.95;;;;;;;6.75;100.00;102700.06;4987595;28;20053;-54
2022/11/26 06:40:18;;;;;;;19.40;7.72;;;;;;;6.75;100.00;102705.47;4976232;28;20085;-53
2022/11/26 06:42:50;;;;;;;21.85;8.15;;;;;;;6.75;100.00;102706.31;4976415;28;20043;-54
2022/11/26 06:45:19;;;;;;;22.88;8.32;;;;;;;6.74;100.00;102704.66;4975782;28;20054;-53
2022/11/26 06:47:48;;;;;;;22.45;8.27;;;;;;;6.73;100.00;102708.38;4990730;28;20062;-49
2022/11/26 06:50:17;;;;;;;23.05;8.35;;;;;;;6.72;100.00;102712.13;4961105;28;20097;-54
2022/11/26 06:52:45;;;;;;;24.42;8.90;;;;;;;6.67;100.00;102721.88;4983574;28;20042;-52
2022/11/26 06:55:13;;;;;;;29.05;10.10;;;;;;;6.61;100.00;102709.94;4984121;28;20043;-53
2022/11/26 06:57:40;;;;;;;26.17;9.77;;;;;;;6.60;100.00;102719.13;4982545;28;20097;-54
2022/11/26 07:00:08;;;;;;;22.77;9.43;;;;;;;6.59;100.00;102706.59;4988792;28;20489;-53
2022/11/26 07:02:37;;;;;;;24.35;8.93;;;;;;;6.54;100.00;102703.63;4975364;28;20043;-54
2022/11/26 07:05:04;;;;;;;23.38;9.13;;;;;;;6.50;100.00;102710.47;4977255;28;20049;-54
2022/11/26 07:07:34;;;;;;;25.08;10.85;;;;;;;6.49;100.00;102706.91;4986806;28;20500;-52
2022/11/26 07:10:02;;;;;;;21.40;10.32;;;;;;;6.42;100.00;102710.59;4989280;28;20043;-53
2022/11/26 07:12:30;;;;;;;26.60;10.13;;;;;;;6.33;100.00;102715.31;4967630;28;20046;-55
2022/11/26 07:14:58;;;;;;;26.70;11.13;;;;;;;6.31;100.00;102718.22;4960970;28;20058;-53
2022/11/26 07:17:27;;;;;;;24.98;10.75;;;;;;;6.31;100.00;102720.09;4985096;28;20058;-56
2022/11/26 07:19:55;;;;;;;23.45;9.68;;;;;;;6.26;100.00;102726.06;4986565;28;20553;-54
2022/11/26 07:22:23;;;;;;;24.63;10.80;;;;;;;6.28;100.00;102734.84;4975001;28;20043;-51
2022/11/26 07:24:51;;;;;;;24.67;10.52;;;;;;;6.29;100.00;102739.22;4992582;28;20073;-51
2022/11/26 07:27:19;;;;;;;23.08;10.40;;;;;;;6.31;100.00;102741.75;4978984;28;20481;-51
2022/11/26 07:29:47;;;;;;;23.73;10.18;;;;;;;6.35;100.00;102748.44;4984966;28;20077;-52
2022/11/26 07:32:14;;;;;;;26.48;10.30;;;;;;;6.43;100.00;102755.63;4974722;28;20058;-51
2022/11/26 07:34:42;;;;;;;19.88;10.52;;;;;;;6.44;100.00;102751.88;4982468;28;20039;-53
2022/11/26 07:37:10;;;;;;;22.95;11.35;;;;;;;6.43;100.00;102747.50;4954776;28;20096;-51
2022/11/26 07:39:37;;;;;;;23.52;10.02;;;;;;;6.37;100.00;102747.22;4980812;28;20042;-53
2022/11/26 07:42:05;;;;;;;21.08;9.65;;;;;;;6.36;100.00;102744.72;4982689;28;20672;-50
2022/11/26 07:44:33;;;;;;;22.60;10.30;;;;;;;6.35;100.00;102745.72;4988676;28;20031;-51
2022/11/26 07:47:02;;;;;;;22.50;10.60;;;;;;;6.31;100.00;102750.69;4975070;28;20061;-55
2022/11/26 07:49:30;;;;;;;25.85;10.55;;;;;;;6.29;100.00;102760.03;4976767;28;20085;-54
2022/11/26 07:51:57;;;;;;;22.70;9.77;;;;;;;6.27;100.00;102757.50;4974916;28;20441;-53
2022/11/26 07:54:25;;;;;;;19.77;9.57;;;;;;;6.27;100.00;102751.28;4987527;28;20054;-51
2022/11/26 07:56:52;;;;;;;23.77;10.98;;;;;;;6.21;100.00;102757.47;4974844;28;20050;-53
2022/11/26 07:59:21;;;;;;;23.40;10.70;;;;;;;6.19;100.00;102755.78;4974340;28;20097;-54
2022/11/26 08:01:48;;;;;;;21.02;9.80;;;;;;;6.24;100.00;102757.91;4983295;28;20039;-52
2022/11/26 08:04:16;;;;;;;22.95;10.30;;;;;;;6.27;100.00;102735.84;4980273;28;20043;-53
2022/11/26 08:06:44;;;;;;;20.80;9.48;;;;;;;6.23;100.00;102745.41;4975496;28;20069;-50
2022/11/26 08:09:11;;;;;;;23.25;10.10;;;;;;;6.19;100.00;102749.53;4996144;28;20048;-51
2022/11/26 08:11:39;;;;;;;28.75;10.35;;;;;;;6.20;100.00;102745.78;5000459;28;20034;-53
2022/11/26 08:14:09;;;;;;;19.83;9.57;;;;;;;6.20;100.00;102748.47;5009274;28;20046;-50
2022/11/26 08:16:37;;;;;;;22.02;9.95;;;;;;;6.20;100.00;102751.19;4994376;28;20042;-50
2022/11/26 08:19:09;;;;;;;25.17;10.60;;;;;;;6.19;100.00;102749.53;5013501;28;20121;-52
2022/11/26 08:21:38;;;;;;;21.55;9.23;;;;;;;6.25;100.00;102750.63;4990482;28;20045;-54
2022/11/26 08:24:07;;;;;;;24.48;9.38;;;;;;;6.33;100.00;102750.50;4989396;28;20056;-54
2022/11/26 08:26:34;;;;;;;23.05;9.35;;;;;;;6.39;100.00;102752.44;5013200;28;20052;-54
2022/11/26 08:29:10;;;;;;;24.70;10.07;;;;;;;6.44;100.00;102751.88;4989431;28;20055;-55
2022/11/26 08:31:40;;;;;;;21.02;8.52;;;;;;;6.50;100.00;102762.78;4957943;28;20286;-52
2022/11/26 08:34:14;;;;;;;20.52;9.20;;;;;;;6.53;100.00;102766.97;4988185;28;20063;-55
2022/11/26 08:36:42;;;;;;;23.30;8.77;;;;;;;6.57;100.00;102768.25;4956911;28;20047;-55
2022/11/26 08:39:16;;;;;;;22.33;8.75;;;;;;;6.63;100.00;102767.47;4969909;28;20110;-57
2022/11/26 08:41:45;;;;;;;21.23;8.68;;;;;;;6.70;100.00;102771.06;4964445;28;20127;-52
2022/11/26 08:44:19;;;;;;;27.33;8.98;;;;;;;6.73;100.00;102762.56;4973720;28;20043;-53
2022/11/26 08:46:47;;;;;;;19.95;8.40;;;;;;;6.78;100.00;102773.66;4965672;28;20489;-55
2022/11/26 08:49:15;;;;;;;24.88;8.93;;;;;;;6.89;100.00;102769.59;4978978;28;20043;-50
2022/11/26 08:51:44;;;;;;;25.17;8.63;;;;;;;6.87;100.00;102770.81;4985266;28;20045;-52
2022/11/26 08:54:11;;;;;;;20.13;8.30;;;;;;;6.85;100.00;102770.16;4979365;28;20061;-49
2022/11/26 08:56:39;;;;;;;19.92;7.97;;;;;;;6.82;100.00;102766.81;4973769;28;20493;-50
2022/11/26 08:59:07;;;;;;;22.50;8.60;;;;;;;6.87;100.00;102768.09;4968644;28;20047;-51
2022/11/26 09:01:35;;;;;;;21.65;9.02;;;;;;;6.88;100.00;102765.22;4987644;28;20093;-52
2022/11/26 09:04:03;;;;;;;23.55;8.57;;;;;;;6.82;100.00;102764.09;4982772;28;20051;-51
2022/11/26 09:06:32;;;;;;;19.63;8.38;;;;;;;6.85;100.00;102765.56;4973598;28;20038;-54
2022/11/26 09:09:13;;;;;;;21.42;8.15;;;;;;;6.91;100.00;102766.69;4962935;28;20101;-52
2022/11/26 09:11:53;;;;;;;19.90;7.90;;;;;;;6.90;100.00;102770.41;4973435;28;20489;-54
2022/11/26 09:14:23;;;;;;;19.20;8.35;;;;;;;6.89;100.00;102769.59;4981538;28;20512;-53
2022/11/26 09:16:53;;;;;;;19.40;7.90;;;;;;;6.89;100.00;102772.28;4973657;28;20046;-54
2022/11/26 09:19:20;;;;;;;19.00;7.65;;;;;;;6.89;100.00;102774.16;4973292;28;20046;-54
2022/11/26 09:21:48;;;;;;;20.40;8.10;;;;;;;6.89;100.00;102785.00;4990461;28;20046;-52
2022/11/26 09:24:16;;;;;;;16.50;7.15;;;;;;;6.92;100.00;102787.31;5008213;28;20045;-53
2022/11/26 09:26:43;;;;;;;20.63;7.47;;;;;;;6.97;100.00;102780.28;5012885;28;20042;-55
2022/11/26 09:29:17;;;;;;;20.98;8.18;;;;;;;6.90;100.00;102784.78;4987335;28;20043;-56
2022/11/26 09:31:45;;;;;;;19.98;9.88;;;;;;;6.88;100.00;102788.72;4982117;28;20050;-58
2022/11/26 09:34:32;;;;;;;18.35;7.97;;;;;;;6.94;100.00;102791.50;4973551;28;20035;-55
2022/11/26 09:37:00;;;;;;;21.58;7.82;;;;;;;6.97;100.00;102795.69;4973607;28;20050;-57
2022/11/26 09:39:28;;;;;;;19.33;6.88;;;;;;;7.01;100.00;102802.41;4958586;28;20412;-59
2022/11/26 09:42:04;;;;;;;18.60;7.40;;;;;;;7.06;100.00;102799.94;4988029;28;20065;-58
2022/11/26 09:44:53;;;;;;;23.05;8.60;;;;;;;7.14;100.00;102798.97;4969403;28;20045;-49
2022/11/26 09:47:27;;;;;;;21.77;7.72;;;;;;;7.18;100.00;102803.81;4998865;28;20038;-54
2022/11/26 09:50:06;;;;;;;18.23;6.45;;;;;;;7.24;100.00;102813.88;4974681;28;20046;-56
2022/11/26 09:52:41;;;;;;;18.10;6.97;;;;;;;7.24;100.00;102813.88;4988529;28;20428;-56
2022/11/26 09:55:30;;;;;;;18.40;6.57;;;;;;;7.27;100.00;102796.38;4998570;28;20045;-56
2022/11/26 09:58:11;;;;;;;18.58;6.72;;;;;;;7.40;100.00;102801.03;4974856;28;20068;-56
2022/11/26 10:00:44;;;;;;;20.55;7.53;;;;;;;7.35;100.00;102792.66;5016119;28;20070;-54
2022/11/26 10:03:41;;;;;;;16.02;6.70;;;;;;;7.33;100.00;102805.59;4983041;28;20057;-55
2022/11/26 10:06:15;;;;;;;21.63;7.63;;;;;;;7.36;100.00;102797.03;4981397;28;20061;-53
2022/11/26 10:08:55;;;;;;;19.83;7.47;;;;;;;7.33;100.00;102800.16;5019096;28;20578;-54
2022/11/26 10:11:42;;;;;;;20.13;7.18;;;;;;;7.37;100.00;102798.75;4973275;28;20049;-54
2022/11/26 10:14:27;;;;;;;17.60;6.53;;;;;;;7.42;100.00;102798.97;5001641;28;20093;-57
2022/11/26 10:16:55;;;;;;;17.80;6.47;;;;;;;7.51;100.00;102800.50;4998494;28;20042;-53
2022/11/26 10:19:43;;;;;;;19.33;7.97;;;;;;;7.48;100.00;102798.19;5017404;28;20042;-53
2022/11/26 10:22:22;;;;;;;14.38;6.43;;;;;;;7.50;100.00;102795.25;4999516;28;20041;-53
2022/11/26 10:24:50;;;;;;;17.52;6.72;;;;;;;7.52;100.00;102806.75;4979835;28;20039;-53
2022/11/26 10:27:20;;;;;;;18.33;6.88;;;;;;;7.62;100.00;102799.94;5005425;28;20267;-50
2022/11/26 10:30:16;;;;;;;18.83;6.75;;;;;;;7.62;100.00;102799.94;4983163;28;20283;-53
2022/11/26 10:32:45;;;;;;;19.42;6.55;;;;;;;7.59;100.00;102797.63;4960959;28;20078;-54
2022/11/26 10:35:19;;;;;;;18.73;6.28;;;;;;;7.68;100.00;102793.72;4976953;28;20130;-55
2022/11/26 10:37:46;;;;;;;20.65;8.02;;;;;;;7.71;100.00;102797.06;4978290;28;20516;-56
2022/11/26 10:40:31;;;;;;;23.75;7.30;;;;;;;7.69;100.00;102795.38;4960203;28;20102;-59
2022/11/26 10:43:07;;;;;;;18.90;6.95;;;;;;;7.69;100.00;102795.38;4986924;28;20089;-51
2022/11/26 10:45:47;;;;;;;20.20;6.55;;;;;;;7.65;100.00;102785.16;4990511;28;20129;-59
2022/11/26 10:48:17;;;;;;;18.88;6.43;;;;;;;7.62;100.00;102789.06;4978014;28;20058;-52
2022/11/26 10:51:08;;;;;;;17.00;6.13;;;;;;;7.66;100.00;102784.09;4969886;28;20039;-55
2022/11/26 10:53:52;;;;;;;17.45;6.53;;;;;;;7.69;100.00;102784.53;4978679;28;20133;-54
2022/11/26 10:56:28;;;;;;;24.05;7.80;;;;;;;7.64;100.00;102783.47;4987941;28;20043;-51
2022/11/26 10:58:58;;;;;;;28.08;7.78;;;;;;;7.63;100.00;102779.09;4975975;28;20081;-56
2022/11/26 11:01:34;;;;;;;22.83;8.20;;;;;;;7.63;100.00;102779.09;4972514;28;20043;-53
2022/11/26 11:04:02;;;;;;;24.83;7.60;;;;;;;7.65;100.00;102782.44;4966256;28;20051;-52
2022/11/26 11:06:42;;;;;;;16.10;6.30;;;;;;;7.75;100.00;102791.03;4973594;28;20098;-52
2022/11/26 11:09:27;;;;;;;20.48;6.82;;;;;;;7.86;100.00;102778.78;4969427;28;20065;-53
2022/11/26 11:12:22;;;;;;;19.45;7.55;;;;;;;7.97;100.00;102770.06;4987390;28;20043;-52
2022/11/26 11:14:51;;;;;;;15.82;6.07;;;;;;;8.04;100.00;102778.25;4978761;28;20054;-53
2022/11/26 11:17:35;;;;;;;20.58;6.72;;;;;;;8.04;100.00;102770.94;4970882;28;20098;-52
2022/11/26 11:20:15;;;;;;;18.50;6.47;;;;;;;8.13;100.00;102773.44;4978427;28;20039;-52
2022/11/26 11:22:45;;;;;;;22.92;6.53;;;;;;;8.56;100.00;102773.19;4975028;28;20058;-54
2022/11/26 11:25:25;;;;;;;14.15;5.57;;;;;;;8.66;100.00;102773.59;4971436;28;20038;-54
2022/11/26 11:27:53;;;;;;;18.42;5.80;;;;;;;8.62;100.00;102778.63;4979631;28;20137;-53
2022/11/26 11:30:26;;;;;;;19.75;6.05;;;;;;;8.58;100.00;102773.81;4973807;28;20145;-53
2022/11/26 11:33:08;;;;;;;19.70;5.90;;;;;;;8.56;100.00;102767.75;4975229;28;20050;-52
2022/11/26 11:35:35;;;;;;;15.73;5.45;;;;;;;8.57;100.00;102764.84;4978977;28;20101;-53